Time;durP1;ratioP1;P1;durP2;ratioP2;P2;SDS_P1;SDS_P2;PMS_P1;PMS_P2;Temp;Humidity;BMP_temperature;BMP_pressure;BME280_temperature;BME280_humidity;BME280_pressure;Samples;Min_cycle;Max_cycle;Signal;HPM_P1;HPM_P2
2024/03/25 00:01:16;;;;;;;1.02;0.75;;;17.90;62.60;;;;;;6119909;23;20234;-83
2024/03/25 00:03:46;;;;;;;1.42;0.60;;;17.90;62.70;;;;;;6119906;23;20179;-83
2024/03/25 00:06:14;;;;;;;1.85;0.68;;;17.90;62.70;;;;;;6119034;23;20171;-83
2024/03/25 00:08:42;;;;;;;0.85;0.70;;;17.90;62.50;;;;;;6119887;23;20175;-83
2024/03/25 00:11:08;;;;;;;1.05;0.68;;;17.90;62.90;;;;;;6120357;23;20147;-83
2024/03/25 00:13:34;;;;;;;0.63;0.63;;;17.80;62.70;;;;;;6120386;23;20149;-83
2024/03/25 00:16:01;;;;;;;0.50;0.50;;;17.90;62.50;;;;;;6079386;23;20635;-84
2024/03/25 00:18:33;;;;;;;1.67;0.90;;;18.00;62.30;;;;;;6056821;23;20157;-84
2024/03/25 00:21:02;;;;;;;0.93;0.70;;;17.90;62.60;;;;;;6060564;23;20211;-83
2024/03/25 00:23:29;;;;;;;0.60;0.60;;;17.90;62.60;;;;;;6084674;23;20196;-83
2024/03/25 00:26:05;;;;;;;0.70;0.70;;;17.90;62.60;;;;;;6109749;23;20157;-84
2024/03/25 00:28:35;;;;;;;1.27;0.88;;;17.90;62.60;;;;;;6084612;23;20184;-83
2024/03/25 00:31:06;;;;;;;0.60;0.60;;;17.80;62.40;;;;;;6085670;23;20235;-83
2024/03/25 00:33:34;;;;;;;0.80;0.68;;;17.80;62.80;;;;;;6060178;23;20608;-83
2024/03/25 00:36:05;;;;;;;1.45;0.70;;;17.90;62.60;;;;;;6108665;23;20153;-83
2024/03/25 00:38:31;;;;;;;0.85;0.73;;;17.90;62.60;;;;;;6059885;23;20219;-83
2024/03/25 00:41:01;;;;;;;0.63;0.57;;;17.90;62.70;;;;;;6084336;23;20165;-83
2024/03/25 00:43:27;;;;;;;0.63;0.63;;;17.80;62.90;;;;;;6084504;23;20644;-83
2024/03/25 00:45:58;;;;;;;0.80;0.70;;;17.80;62.50;;;;;;6112592;23;20612;-83
2024/03/25 00:48:26;;;;;;;0.95;0.73;;;17.90;63.40;;;;;;6094476;23;20238;-83
2024/03/25 00:50:57;;;;;;;0.60;0.55;;;17.90;62.60;;;;;;6119534;23;20205;-83
2024/03/25 00:53:24;;;;;;;0.85;0.65;;;17.80;62.60;;;;;;6094159;23;20426;-84
2024/03/25 00:55:50;;;;;;;0.68;0.68;;;17.80;62.70;;;;;;6168505;23;20148;-83
2024/03/25 00:58:15;;;;;;;0.50;0.50;;;17.80;62.70;;;;;;6143398;23;20162;-83
2024/03/25 01:00:41;;;;;;;0.60;0.60;;;17.80;62.70;;;;;;6119779;23;20167;-83
2024/03/25 01:03:10;;;;;;;1.75;0.70;;;17.80;62.80;;;;;;6096719;23;20198;-83
2024/03/25 01:05:41;;;;;;;0.73;0.73;;;17.80;62.70;;;;;;6119701;23;20155;-83
2024/03/25 01:08:10;;;;;;;0.73;0.65;;;17.80;62.90;;;;;;6119027;23;20183;-84
2024/03/25 01:10:36;;;;;;;0.63;0.60;;;17.80;62.90;;;;;;6097239;23;20171;-83
2024/03/25 01:13:04;;;;;;;0.90;0.60;;;17.80;62.60;;;;;;6095741;23;20152;-83
2024/03/25 01:15:30;;;;;;;0.68;0.60;;;17.80;62.60;;;;;;6094983;23;20152;-84
2024/03/25 01:17:56;;;;;;;0.80;0.77;;;17.80;62.80;;;;;;6096275;23;20156;-83
2024/03/25 01:20:23;;;;;;;0.88;0.80;;;17.70;62.60;;;;;;6171527;23;20221;-83
2024/03/25 01:22:56;;;;;;;0.60;0.60;;;17.80;62.90;;;;;;6173417;23;20139;-83
2024/03/25 01:25:27;;;;;;;0.93;0.77;;;17.80;62.70;;;;;;6197250;23;20182;-83
2024/03/25 01:27:53;;;;;;;0.80;0.80;;;17.80;62.70;;;;;;6147829;23;20174;-84
2024/03/25 01:30:27;;;;;;;1.80;0.65;;;17.80;62.70;;;;;;6172680;23;20182;-83
2024/03/25 01:32:57;;;;;;;1.00;0.70;;;17.80;62.70;;;;;;6196604;23;20297;-83
2024/03/25 01:35:24;;;;;;;0.60;0.60;;;17.80;62.70;;;;;;6149580;23;20147;-83
2024/03/25 01:37:54;;;;;;;0.77;0.73;;;17.70;62.70;;;;;;6173298;23;20127;-83
2024/03/25 01:40:20;;;;;;;0.70;0.60;;;17.90;62.60;;;;;;6148080;23;20151;-83
2024/03/25 01:43:05;;;;;;;1.67;0.73;;;17.80;62.70;;;;;;6148209;23;20167;-84
2024/03/25 01:45:32;;;;;;;0.88;0.73;;;17.80;62.60;;;;;;6148224;23;20166;-83
2024/03/25 01:48:02;;;;;;;0.98;0.82;;;17.80;62.80;;;;;;6149034;23;20175;-83
2024/03/25 01:50:28;;;;;;;0.90;0.70;;;17.70;62.70;;;;;;6148763;23;20146;-83
2024/03/25 01:52:59;;;;;;;0.82;0.70;;;17.80;62.80;;;;;;6174004;23;20131;-83
2024/03/25 01:55:27;;;;;;;0.70;0.68;;;17.70;62.60;;;;;;6123188;23;20249;-83
2024/03/25 01:57:54;;;;;;;1.05;0.60;;;17.70;62.50;;;;;;6149191;23;20162;-82
2024/03/25 02:00:24;;;;;;;0.63;0.63;;;17.70;62.90;;;;;;6172934;23;20233;-83
2024/03/25 02:02:50;;;;;;;1.67;0.70;;;17.70;62.70;;;;;;6148853;23;20238;-83
2024/03/25 02:05:16;;;;;;;1.05;0.88;;;17.70;62.50;;;;;;6137929;23;20172;-83
2024/03/25 02:07:43;;;;;;;0.98;0.88;;;17.80;62.70;;;;;;6089588;23;20148;-83
2024/03/25 02:10:10;;;;;;;0.90;0.70;;;17.80;62.70;;;;;;6089103;23;20149;-83
2024/03/25 02:12:37;;;;;;;1.02;0.60;;;17.70;62.60;;;;;;6089054;23;20156;-83
2024/03/25 02:15:08;;;;;;;0.93;0.77;;;17.70;62.70;;;;;;6089167;23;20208;-83
2024/03/25 02:17:36;;;;;;;1.20;0.75;;;17.80;62.60;;;;;;6090873;23;20203;-83
2024/03/25 02:20:03;;;;;;;0.60;0.60;;;17.70;62.70;;;;;;6052095;23;20197;-83
2024/03/25 02:22:30;;;;;;;1.17;0.73;;;17.70;62.70;;;;;;6108484;23;20134;-83
2024/03/25 02:24:58;;;;;;;0.85;0.70;;;17.70;62.60;;;;;;6061339;23;20148;-84
2024/03/25 02:27:25;;;;;;;0.70;0.50;;;17.80;62.50;;;;;;6059830;23;20152;-83
2024/03/25 02:29:52;;;;;;;1.23;1.00;;;17.70;62.70;;;;;;6060076;23;20620;-84
2024/03/25 02:32:21;;;;;;;0.63;0.63;;;17.70;62.60;;;;;;6060188;23;20153;-83
2024/03/25 02:34:51;;;;;;;0.57;0.57;;;17.70;62.80;;;;;;6061070;23;20156;-83
2024/03/25 02:37:22;;;;;;;0.68;0.63;;;17.70;62.50;;;;;;6166458;23;20621;-83
2024/03/25 02:39:54;;;;;;;0.70;0.70;;;17.80;62.30;;;;;;6098517;23;20159;-84
2024/03/25 02:42:21;;;;;;;0.70;0.70;;;17.80;62.70;;;;;;6123472;23;20154;-84
2024/03/25 02:44:47;;;;;;;0.77;0.70;;;17.70;62.60;;;;;;6149487;23;20151;-83
2024/03/25 02:47:13;;;;;;;0.65;0.65;;;17.70;62.50;;;;;;6148781;23;20211;-84
2024/03/25 02:49:39;;;;;;;0.70;0.70;;;17.80;63.30;;;;;;6148000;23;20179;-83
2024/03/25 02:52:06;;;;;;;0.93;0.70;;;17.80;62.70;;;;;;6173396;23;20135;-84
2024/03/25 02:54:31;;;;;;;0.80;0.75;;;17.70;62.20;;;;;;6172665;23;20131;-83
2024/03/25 02:56:59;;;;;;;0.82;0.70;;;17.70;62.10;;;;;;6173690;23;20158;-83
2024/03/25 02:59:27;;;;;;;0.60;0.60;;;17.70;62.60;;;;;;6122299;23;20147;-83
2024/03/25 03:01:53;;;;;;;0.80;0.80;;;17.70;62.30;;;;;;6173095;23;20143;-83
2024/03/25 03:04:19;;;;;;;0.93;0.80;;;17.70;62.60;;;;;;6173462;23;20525;-83
2024/03/25 03:06:46;;;;;;;0.80;0.68;;;17.70;62.50;;;;;;6149805;23;20154;-83
2024/03/25 03:09:13;;;;;;;1.02;0.82;;;17.70;62.50;;;;;;6100312;23;20205;-84
2024/03/25 03:11:40;;;;;;;0.70;0.70;;;17.70;62.30;;;;;;6150444;23;20146;-83
2024/03/25 03:14:12;;;;;;;0.85;0.85;;;17.70;62.50;;;;;;6150841;23;20151;-83
2024/03/25 03:16:38;;;;;;;1.10;0.80;;;17.70;62.30;;;;;;6100019;23;20155;-83
2024/03/25 03:19:05;;;;;;;0.80;0.70;;;17.80;62.30;;;;;;6174281;23;20150;-83
2024/03/25 03:21:31;;;;;;;0.73;0.70;;;17.70;62.50;;;;;;6143470;23;20199;-83
2024/03/25 03:23:57;;;;;;;1.02;0.75;;;17.80;62.50;;;;;;6120532;23;20159;-83
2024/03/25 03:26:26;;;;;;;1.10;0.85;;;17.70;62.20;;;;;;6120668;23;20135;-82
2024/03/25 03:28:55;;;;;;;0.73;0.73;;;17.70;62.50;;;;;;6097855;23;20175;-83
2024/03/25 03:31:21;;;;;;;0.73;0.65;;;17.70;62.70;;;;;;6095074;23;20155;-84
2024/03/25 03:33:53;;;;;;;0.93;0.80;;;17.70;62.50;;;;;;6120615;23;20150;-84
2024/03/25 03:36:20;;;;;;;0.60;0.60;;;17.70;62.50;;;;;;6047574;23;20200;-83
2024/03/25 03:38:49;;;;;;;0.80;0.75;;;17.70;62.50;;;;;;6095231;23;20180;-83
2024/03/25 03:41:15;;;;;;;0.80;0.80;;;17.70;62.20;;;;;;6120407;23;20147;-83
2024/03/25 03:43:40;;;;;;;1.60;1.00;;;17.70;62.20;;;;;;6096047;23;20202;-83
2024/03/25 03:46:06;;;;;;;0.85;0.70;;;17.60;62.50;;;;;;6119350;23;20159;-84
2024/03/25 03:48:32;;;;;;;0.63;0.63;;;17.70;62.40;;;;;;6120055;23;20163;-83
2024/03/25 03:50:59;;;;;;;0.82;0.80;;;17.60;62.60;;;;;;6145035;23;20268;-83
2024/03/25 03:53:28;;;;;;;0.85;0.55;;;17.60;62.30;;;;;;6120658;23;20143;-84
2024/03/25 03:55:55;;;;;;;0.70;0.60;;;17.60;63.50;;;;;;6144980;23;20131;-83
2024/03/25 03:58:22;;;;;;;0.88;0.70;;;17.60;62.60;;;;;;6120476;23;20178;-83
2024/03/25 04:00:47;;;;;;;0.80;0.70;;;17.70;62.50;;;;;;6096148;23;20148;-83
2024/03/25 04:03:14;;;;;;;0.80;0.73;;;17.60;62.30;;;;;;6096012;23;20163;-83
2024/03/25 04:05:40;;;;;;;1.00;0.90;;;17.70;62.50;;;;;;6120248;23;20152;-83
2024/03/25 04:08:08;;;;;;;1.00;0.80;;;17.70;62.30;;;;;;6096072;23;20238;-84
2024/03/25 04:10:34;;;;;;;0.70;0.70;;;17.60;62.50;;;;;;6096281;23;20198;-83
2024/03/25 04:13:01;;;;;;;1.00;0.70;;;17.70;62.40;;;;;;6119870;23;20143;-84
2024/03/25 04:15:28;;;;;;;0.85;0.70;;;17.60;62.40;;;;;;6144665;23;20162;-83
2024/03/25 04:17:58;;;;;;;1.05;0.88;;;17.60;62.30;;;;;;6119625;23;20128;-83
2024/03/25 04:20:24;;;;;;;0.80;0.80;;;17.60;62.10;;;;;;6080557;23;20199;-83
2024/03/25 04:22:50;;;;;;;0.80;0.80;;;17.60;62.30;;;;;;6143062;23;20162;-83
2024/03/25 04:25:18;;;;;;;0.85;0.70;;;17.60;62.40;;;;;;6095953;23;20139;-83
2024/03/25 04:27:44;;;;;;;0.85;0.57;;;17.60;62.10;;;;;;6094028;23;20162;-83
2024/03/25 04:30:14;;;;;;;0.80;0.80;;;17.70;62.10;;;;;;6143919;23;20127;-83
2024/03/25 04:32:40;;;;;;;0.80;0.70;;;17.60;62.30;;;;;;6119003;23;20186;-83
2024/03/25 04:35:09;;;;;;;0.82;0.80;;;17.70;62.50;;;;;;6119485;23;20147;-83
2024/03/25 04:37:37;;;;;;;0.80;0.80;;;17.70;62.20;;;;;;6070481;23;20152;-83
2024/03/25 04:40:05;;;;;;;0.80;0.70;;;17.60;62.60;;;;;;6070914;23;20211;-83
2024/03/25 04:42:37;;;;;;;0.80;0.70;;;17.70;62.50;;;;;;6119280;23;20143;-85
2024/03/25 04:45:04;;;;;;;1.45;1.00;;;17.60;62.60;;;;;;6142988;23;20183;-83
2024/03/25 04:47:33;;;;;;;0.85;0.70;;;17.60;62.20;;;;;;6120477;23;20191;-83
2024/03/25 04:49:59;;;;;;;0.73;0.70;;;17.60;62.10;;;;;;6120222;23;20175;-83
2024/03/25 04:52:25;;;;;;;0.73;0.70;;;17.70;62.40;;;;;;6144672;23;20147;-84
2024/03/25 04:54:51;;;;;;;0.70;0.70;;;17.70;62.10;;;;;;6144083;23;20139;-83
2024/03/25 04:57:18;;;;;;;1.00;0.82;;;17.70;62.30;;;;;;6144661;23;20147;-84
2024/03/25 04:59:44;;;;;;;0.88;0.70;;;17.60;62.40;;;;;;6119661;23;20147;-83
2024/03/25 05:02:14;;;;;;;0.90;0.70;;;17.60;63.30;;;;;;6096012;23;20499;-84
2024/03/25 05:04:40;;;;;;;0.75;0.70;;;17.60;62.20;;;;;;6070347;23;20218;-83
2024/03/25 05:07:05;;;;;;;0.82;0.77;;;17.60;62.20;;;;;;6095199;23;20237;-84
2024/03/25 05:09:32;;;;;;;0.60;0.60;;;17.60;62.30;;;;;;6119776;23;20182;-83
2024/03/25 05:11:58;;;;;;;1.17;0.60;;;17.60;62.20;;;;;;6119630;23;20148;-83
2024/03/25 05:14:24;;;;;;;0.70;0.70;;;17.60;62.10;;;;;;6119570;23;20140;-83
2024/03/25 05:16:53;;;;;;;1.05;0.88;;;17.60;62.10;;;;;;6095590;23;20136;-83
2024/03/25 05:19:21;;;;;;;1.38;0.70;;;17.60;62.20;;;;;;6171746;23;20139;-83
2024/03/25 05:21:47;;;;;;;1.05;0.90;;;17.60;62.40;;;;;;6173982;23;20137;-83
2024/03/25 05:24:16;;;;;;;1.02;0.80;;;17.60;62.20;;;;;;6149161;23;20146;-83
2024/03/25 05:26:42;;;;;;;0.80;0.65;;;17.50;62.40;;;;;;6123775;23;20155;-83
2024/03/25 05:29:09;;;;;;;0.90;0.80;;;17.60;62.60;;;;;;6172591;23;20229;-84
2024/03/25 05:31:38;;;;;;;1.00;0.90;;;17.50;62.70;;;;;;6148755;23;20139;-83
2024/03/25 05:34:08;;;;;;;1.15;0.80;;;17.50;62.40;;;;;;6075180;23;20154;-83
2024/03/25 05:36:36;;;;;;;0.80;0.80;;;17.60;62.30;;;;;;6174668;23;20147;-83
2024/03/25 05:39:08;;;;;;;0.80;0.70;;;17.60;62.00;;;;;;6123694;23;20159;-83
2024/03/25 05:41:39;;;;;;;0.60;0.60;;;17.60;62.30;;;;;;6124170;23;20181;-83
2024/03/25 05:44:06;;;;;;;1.05;0.85;;;17.60;62.20;;;;;;6098882;23;20154;-83
2024/03/25 05:46:32;;;;;;;1.90;0.80;;;17.60;62.00;;;;;;6148901;23;20455;-83
2024/03/25 05:49:03;;;;;;;1.90;0.80;;;17.60;61.80;;;;;;6149452;23;20174;-83
2024/03/25 05:51:36;;;;;;;0.85;0.70;;;17.60;61.80;;;;;;6148830;23;20217;-83
2024/03/25 05:54:04;;;;;;;0.75;0.70;;;17.60;62.30;;;;;;6098632;23;20210;-83
2024/03/25 05:56:37;;;;;;;0.80;0.80;;;17.60;62.30;;;;;;6198379;23;20138;-83
2024/03/25 05:59:05;;;;;;;1.00;0.90;;;17.60;62.40;;;;;;6148348;23;20161;-83
2024/03/25 06:01:40;;;;;;;1.00;0.80;;;17.60;62.00;;;;;;6148417;23;20213;-83
2024/03/25 06:04:06;;;;;;;0.80;0.63;;;17.60;62.10;;;;;;6123473;23;20158;-83
2024/03/25 06:06:34;;;;;;;0.80;0.80;;;17.60;62.30;;;;;;6148059;23;20517;-83
2024/03/25 06:09:00;;;;;;;1.05;0.80;;;17.50;62.20;;;;;;6147972;23;20301;-83
2024/03/25 06:11:26;;;;;;;0.70;0.68;;;17.60;62.00;;;;;;6173672;23;20143;-83
2024/03/25 06:13:59;;;;;;;1.10;0.80;;;17.60;62.10;;;;;;6172879;23;20173;-82
2024/03/25 06:16:26;;;;;;;1.30;0.98;;;17.50;62.30;;;;;;6172506;23;20162;-83
2024/03/25 06:18:54;;;;;;;1.02;0.93;;;17.50;62.30;;;;;;6148475;23;20147;-83
2024/03/25 06:21:23;;;;;;;0.70;0.70;;;17.50;62.50;;;;;;6147014;23;20194;-82
2024/03/25 06:23:51;;;;;;;0.75;0.70;;;17.50;62.40;;;;;;6172865;23;20155;-83
2024/03/25 06:26:17;;;;;;;0.98;0.82;;;17.60;61.10;;;;;;6135936;23;20160;-82
2024/03/25 06:28:45;;;;;;;0.68;0.68;;;17.60;61.30;;;;;;6110267;23;20566;-82
2024/03/25 06:36:30;;;;;;;0.70;0.55;;;17.70;60.40;;;;;;6090937;23;20203;-82
2024/03/25 06:38:56;;;;;;;0.80;0.80;;;17.80;60.70;;;;;;6087935;23;20618;-83
2024/03/25 06:41:24;;;;;;;0.80;0.80;;;17.70;60.90;;;;;;6085393;23;20149;-84
2024/03/25 06:43:50;;;;;;;1.30;1.02;;;17.80;61.20;;;;;;6062900;23;20243;-82
2024/03/25 06:46:16;;;;;;;0.95;0.77;;;17.70;61.00;;;;;;6084926;23;20622;-83
2024/03/25 06:48:45;;;;;;;1.17;0.90;;;17.80;61.00;;;;;;6086071;23;20185;-84
2024/03/25 06:51:11;;;;;;;0.70;0.70;;;17.90;60.70;;;;;;6036820;23;20600;-82
2024/03/25 06:53:40;;;;;;;1.33;0.70;;;17.90;60.60;;;;;;6085693;23;20160;-82
2024/03/25 06:56:06;;;;;;;0.90;0.90;;;17.80;60.50;;;;;;6071949;23;20160;-83
2024/03/25 06:58:32;;;;;;;1.83;0.80;;;17.90;61.20;;;;;;6115370;23;20148;-82
2024/03/25 07:01:05;;;;;;;1.40;0.70;;;17.80;61.00;;;;;;6091872;23;20174;-83
2024/03/25 07:03:36;;;;;;;1.42;0.80;;;17.80;60.90;;;;;;6107069;23;20230;-83
2024/03/25 07:06:05;;;;;;;1.02;0.90;;;17.80;61.10;;;;;;6112576;23;20260;-84
2024/03/25 07:08:31;;;;;;;1.92;1.05;;;17.80;61.20;;;;;;6139496;23;20203;-83
2024/03/25 07:10:57;;;;;;;2.28;1.02;;;17.80;61.60;;;;;;6113201;23;20608;-84
2024/03/25 07:13:26;;;;;;;2.03;0.80;;;17.80;61.70;;;;;;6195538;23;20182;-82
2024/03/25 07:15:56;;;;;;;1.08;0.98;;;17.80;61.20;;;;;;6174392;23;20143;-82
2024/03/25 07:18:23;;;;;;;0.93;0.80;;;17.80;61.30;;;;;;6150538;23;20154;-83
2024/03/25 07:20:52;;;;;;;0.60;0.60;;;17.90;60.60;;;;;;6150030;23;20213;-83
2024/03/25 07:23:18;;;;;;;1.13;0.80;;;17.90;61.80;;;;;;6173692;23;20182;-82
2024/03/25 07:25:47;;;;;;;0.70;0.70;;;17.90;60.10;;;;;;6173236;23;20131;-82
2024/03/25 07:28:16;;;;;;;1.38;0.90;;;18.00;60.10;;;;;;6148155;23;20182;-82
2024/03/25 07:30:46;;;;;;;1.33;0.90;;;17.90;59.70;;;;;;6175423;23;20551;-82
2024/03/25 07:33:18;;;;;;;1.10;0.80;;;17.90;60.10;;;;;;6149738;23;20158;-82
2024/03/25 07:35:46;;;;;;;1.10;0.85;;;18.00;60.50;;;;;;6174499;23;20151;-82
2024/03/25 07:38:13;;;;;;;1.77;0.90;;;18.00;60.20;;;;;;6122705;23;20178;-82
2024/03/25 07:40:48;;;;;;;0.60;0.60;;;17.90;59.90;;;;;;6148816;23;20474;-82
2024/03/25 07:43:25;;;;;;;1.20;0.77;;;18.00;60.10;;;;;;6122945;23;20493;-83
2024/03/25 07:45:51;;;;;;;0.70;0.60;;;17.90;60.40;;;;;;6173205;23;20213;-82
2024/03/25 07:49:02;;;;;;;0.90;0.88;;;17.90;60.10;;;;;;6148315;23;20193;-82
2024/03/25 07:52:13;;;;;;;1.85;0.70;;;17.90;60.00;;;;;;6154913;23;20159;-82
2024/03/25 07:58:12;;;;;;;1.02;0.70;;;17.90;60.80;;;;;;6045442;23;20162;-82
2024/03/25 08:00:40;;;;;;;0.90;0.68;;;17.90;59.90;;;;;;6044503;23;20154;-83
2024/03/25 08:03:12;;;;;;;1.02;0.90;;;18.00;59.90;;;;;;6019760;23;20162;-82
2024/03/25 08:05:41;;;;;;;4.55;0.70;;;18.00;59.80;;;;;;6045701;23;20186;-82
2024/03/25 08:08:15;;;;;;;0.85;0.70;;;18.00;60.00;;;;;;6023801;23;20182;-83
2024/03/25 08:11:05;;;;;;;0.70;0.68;;;17.90;59.60;;;;;;6026314;23;20169;-82
2024/03/25 08:13:33;;;;;;;1.48;0.70;;;18.10;60.10;;;;;;6050097;23;20150;-83
2024/03/25 08:16:03;;;;;;;0.60;0.60;;;18.00;60.00;;;;;;6012555;23;20163;-82
2024/03/25 08:18:48;;;;;;;2.80;0.88;;;17.90;60.20;;;;;;5991722;23;20163;-83
2024/03/25 08:21:18;;;;;;;1.35;0.60;;;17.90;59.90;;;;;;5969113;23;20244;-82
2024/03/25 08:23:55;;;;;;;0.90;0.70;;;18.00;59.50;;;;;;5966290;24;20520;-82
2024/03/25 08:26:34;;;;;;;1.17;1.02;;;18.00;60.80;;;;;;5966816;24;20159;-83
2024/03/25 08:29:03;;;;;;;2.50;1.02;;;18.00;60.00;;;;;;5990382;24;20194;-82
2024/03/25 08:31:56;;;;;;;1.38;0.75;;;17.90;60.30;;;;;;5969639;24;20156;-83
2024/03/25 08:34:25;;;;;;;1.67;1.02;;;18.00;60.20;;;;;;5954172;24;20611;-83
2024/03/25 08:36:57;;;;;;;2.95;0.80;;;17.90;60.20;;;;;;5970730;24;20155;-82
2024/03/25 08:39:35;;;;;;;1.17;1.00;;;17.90;61.40;;;;;;6049211;23;20161;-82
2024/03/25 08:42:10;;;;;;;3.10;0.90;;;17.90;59.90;;;;;;6027365;23;20212;-82
2024/03/25 08:45:57;;;;;;;2.97;0.82;;;17.90;60.80;;;;;;6030327;23;20181;-83
2024/03/25 08:48:06;;;;;;;2.58;0.80;;;17.90;61.20;;;;;;5985445;24;20164;-82
2024/03/25 08:50:49;;;;;;;1.02;0.85;;;18.00;60.10;;;;;;5994752;23;20155;-83
2024/03/25 08:53:29;;;;;;;1.58;0.80;;;18.00;59.20;;;;;;5992810;23;20300;-83
2024/03/25 08:56:05;;;;;;;2.88;0.95;;;18.00;60.20;;;;;;5993736;23;20238;-82
2024/03/25 08:58:57;;;;;;;3.75;0.77;;;18.00;59.60;;;;;;5968833;24;20216;-82
2024/03/25 09:01:27;;;;;;;4.85;0.90;;;18.10;60.30;;;;;;5991483;24;20155;-82
2024/03/25 09:07:38;;;;;;;2.22;0.82;;;18.00;59.90;;;;;;5983408;24;20259;-83
2024/03/25 09:13:03;;;;;;;0.95;0.70;;;18.10;59.70;;;;;;5991057;24;20219;-83
2024/03/25 09:15:42;;;;;;;;;;;;;;;;;;;;;
2024/03/25 09:18:34;;;;;;;2.45;0.93;;;18.10;59.60;;;;;;5942364;24;20179;-83
2024/03/25 09:21:07;;;;;;;3.28;0.80;;;18.10;59.80;;;;;;5959280;24;20199;-83
2024/03/25 09:23:58;;;;;;;1.42;0.88;;;18.10;58.90;;;;;;5949728;23;20199;-83
2024/03/25 09:26:37;;;;;;;1.75;0.80;;;18.10;59.10;;;;;;6066041;23;20149;-84
2024/03/25 09:29:38;;;;;;;4.25;0.85;;;18.10;59.50;;;;;;5999251;23;20186;-83
2024/03/25 09:32:41;;;;;;;2.42;0.90;;;18.10;60.10;;;;;;6017064;23;20206;-81
2024/03/25 09:35:20;;;;;;;3.38;1.10;;;18.10;59.20;;;;;;5966560;24;20156;-81
2024/03/25 09:37:57;;;;;;;1.60;0.70;;;18.30;57.50;;;;;;5989441;24;20156;-81
2024/03/25 09:40:39;;;;;;;2.83;0.80;;;18.30;59.00;;;;;;5965475;24;20155;-82
2024/03/25 09:43:25;;;;;;;1.60;0.70;;;18.30;57.90;;;;;;5945008;24;20183;-83
2024/03/25 09:46:36;;;;;;;1.42;0.75;;;18.30;58.30;;;;;;5972224;24;20159;-82
2024/03/25 09:49:05;;;;;;;1.00;0.77;;;18.30;58.60;;;;;;5907443;24;20189;-83
2024/03/25 09:52:04;;;;;;;1.35;0.90;;;18.30;57.30;;;;;;5885853;24;20150;-83
2024/03/25 09:54:33;;;;;;;1.13;0.70;;;18.30;58.70;;;;;;5798649;24;20255;-82
2024/03/25 09:57:07;;;;;;;1.67;0.88;;;18.40;58.50;;;;;;5803300;24;20157;-82
2024/03/25 09:59:52;;;;;;;0.75;0.75;;;18.40;58.10;;;;;;5776495;24;20185;-82
2024/03/25 10:02:26;;;;;;;2.10;0.82;;;18.40;58.50;;;;;;5801285;24;20244;-82
2024/03/25 10:05:43;;;;;;;2.65;0.95;;;18.40;58.50;;;;;;5776010;24;20156;-82
2024/03/25 10:08:26;;;;;;;3.17;0.95;;;18.40;58.50;;;;;;5773648;24;20188;-82
2024/03/25 10:11:41;;;;;;;2.45;0.68;;;18.40;58.90;;;;;;5776659;24;20160;-84
2024/03/25 10:14:38;;;;;;;;;;;;;;;;;;;;;
2024/03/25 10:17:04;;;;;;;4.13;0.88;;;18.50;58.40;;;;;;5798942;24;20179;-81
2024/03/25 10:20:12;;;;;;;;;;;;;;;;;;;;;
2024/03/25 10:23:04;;;;;;;2.42;1.00;;;18.50;58.90;;;;;;5780013;24;20565;-82
2024/03/25 10:25:33;;;;;;;1.27;0.90;;;18.40;59.90;;;;;;5778927;24;20283;-82
2024/03/25 10:28:02;;;;;;;3.42;0.90;;;18.40;59.10;;;;;;5775105;24;20161;-81
2024/03/25 10:30:36;;;;;;;1.92;0.93;;;18.50;59.20;;;;;;5770831;24;20156;-81
2024/03/25 10:33:12;;;;;;;6.18;1.00;;;18.40;58.70;;;;;;5780481;24;20246;-82
2024/03/25 10:35:49;;;;;;;1.55;0.88;;;18.40;59.30;;;;;;5780908;24;20589;-82
2024/03/25 10:38:36;;;;;;;1.33;0.52;;;18.40;59.50;;;;;;5822727;24;20541;-82
2024/03/25 10:41:22;;;;;;;2.17;0.75;;;18.40;59.60;;;;;;5830040;24;20167;-82
2024/03/25 10:44:18;;;;;;;1.10;1.00;;;18.40;59.20;;;;;;5830692;24;20189;-82
2024/03/25 10:47:05;;;;;;;;;;;;;;;;;;;;;
2024/03/25 10:50:02;;;;;;;3.58;0.70;;;18.50;58.50;;;;;;5879182;24;20224;-83
2024/03/25 10:52:41;;;;;;;1.20;0.80;;;18.50;59.10;;;;;;5859600;24;20193;-83
2024/03/25 10:55:12;;;;;;;1.70;0.77;;;18.50;58.70;;;;;;5881095;24;20158;-82
2024/03/25 10:57:49;;;;;;;1.48;0.90;;;18.50;59.30;;;;;;5882316;24;20150;-82
2024/03/25 11:00:30;;;;;;;0.82;0.80;;;18.40;59.00;;;;;;5801983;24;20167;-82
2024/03/25 11:03:01;;;;;;;1.05;0.80;;;18.50;59.00;;;;;;5884053;24;20164;-82
2024/03/25 11:05:41;;;;;;;3.60;0.80;;;18.40;58.20;;;;;;5828894;24;20194;-82
2024/03/25 11:08:18;;;;;;;1.17;0.93;;;18.40;58.40;;;;;;5826649;24;20567;-82
2024/03/25 11:10:47;;;;;;;1.83;0.70;;;18.40;58.70;;;;;;5750879;24;20191;-82
2024/03/25 11:13:27;;;;;;;0.93;0.70;;;18.40;59.20;;;;;;5746584;25;20162;-83
2024/03/25 11:15:54;;;;;;;2.40;0.80;;;18.40;58.60;;;;;;5776128;24;20165;-83
2024/03/25 11:18:33;;;;;;;1.30;0.63;;;18.50;58.30;;;;;;5768421;24;20165;-82
2024/03/25 11:21:57;;;;;;;0.93;0.80;;;18.50;58.50;;;;;;5755805;24;20204;-83
2024/03/25 11:24:32;;;;;;;0.95;0.70;;;18.50;58.80;;;;;;5746651;24;20176;-83
2024/03/25 11:27:01;;;;;;;3.08;0.68;;;18.40;58.40;;;;;;5734412;24;20174;-83
2024/03/25 11:29:27;;;;;;;1.30;0.68;;;18.50;58.40;;;;;;5739116;25;20262;-82
2024/03/25 11:31:58;;;;;;;0.60;0.60;;;18.50;58.10;;;;;;5782954;24;20157;-83
2024/03/25 11:34:24;;;;;;;0.90;0.88;;;18.50;58.80;;;;;;5750881;25;20165;-83
2024/03/25 11:36:57;;;;;;;0.77;0.77;;;18.40;58.40;;;;;;5773527;24;20564;-83
2024/03/25 11:39:26;;;;;;;0.57;0.57;;;18.40;57.90;;;;;;5762337;24;20160;-82
2024/03/25 11:41:58;;;;;;;0.85;0.70;;;18.50;58.40;;;;;;5857526;24;20159;-83
2024/03/25 11:44:25;;;;;;;1.90;1.00;;;18.40;58.30;;;;;;5852410;24;20163;-82
2024/03/25 11:46:55;;;;;;;0.70;0.70;;;18.50;57.70;;;;;;5852592;24;20242;-83
2024/03/25 11:49:21;;;;;;;0.80;0.80;;;18.50;58.30;;;;;;5868441;24;20200;-82
2024/03/25 11:51:49;;;;;;;0.70;0.60;;;18.50;58.00;;;;;;5916496;24;20153;-82
2024/03/25 11:54:22;;;;;;;1.48;0.90;;;18.50;57.80;;;;;;5956318;24;20149;-83
2024/03/25 11:56:50;;;;;;;0.82;0.70;;;18.50;57.40;;;;;;5961274;24;20142;-83
2024/03/25 11:59:22;;;;;;;1.05;0.80;;;18.40;58.50;;;;;;5948035;23;20185;-83
2024/03/25 12:01:51;;;;;;;0.68;0.60;;;18.40;58.00;;;;;;5973674;23;20158;-83
2024/03/25 12:04:25;;;;;;;1.88;0.70;;;18.40;57.80;;;;;;5948986;23;20210;-82
2024/03/25 12:07:01;;;;;;;0.82;0.60;;;18.50;57.80;;;;;;5970329;24;20642;-83
2024/03/25 12:12:17;;;;;;;0.70;0.68;;;18.50;57.60;;;;;;5917285;24;20184;-82
2024/03/25 12:14:46;;;;;;;0.77;0.70;;;18.50;57.70;;;;;;5891944;24;20160;-83
2024/03/25 12:17:17;;;;;;;0.77;0.70;;;18.50;58.70;;;;;;5938660;24;20174;-84
2024/03/25 12:19:42;;;;;;;1.33;0.75;;;18.40;58.90;;;;;;5915590;24;20243;-83
2024/03/25 12:22:15;;;;;;;0.70;0.70;;;18.40;58.30;;;;;;5938251;24;20165;-83
2024/03/25 12:24:51;;;;;;;1.13;0.70;;;18.40;57.80;;;;;;5915387;24;20192;-84
2024/03/25 12:27:20;;;;;;;0.77;0.70;;;18.50;58.40;;;;;;5881827;24;20161;-83
2024/03/25 12:29:48;;;;;;;1.08;0.63;;;18.40;58.30;;;;;;5869008;24;20263;-84
2024/03/25 12:32:39;;;;;;;1.77;0.88;;;18.40;57.60;;;;;;5911640;24;20206;-83
2024/03/25 12:35:14;;;;;;;1.02;0.60;;;18.50;58.60;;;;;;5882780;24;20158;-84
2024/03/25 12:37:51;;;;;;;1.85;0.90;;;18.50;57.80;;;;;;5829155;24;20162;-83
2024/03/25 12:40:32;;;;;;;3.08;0.80;;;18.50;57.70;;;;;;5775296;24;20194;-83
2024/03/25 12:43:02;;;;;;;3.83;1.08;;;18.50;58.30;;;;;;5803709;24;20198;-83
2024/03/25 12:45:32;;;;;;;3.58;0.70;;;18.50;57.30;;;;;;5804255;24;20206;-83
2024/03/25 12:48:03;;;;;;;0.90;0.80;;;18.50;58.20;;;;;;5803292;24;20175;-83
2024/03/25 12:50:33;;;;;;;2.25;0.80;;;18.40;57.80;;;;;;5829948;24;20159;-83
2024/03/25 12:56:41;;;;;;;2.50;0.95;;;18.50;57.50;;;;;;5770877;24;20250;-81
2024/03/25 13:31:14;;;;;;;0.85;0.70;;;18.50;57.40;;;;;;5995860;23;20200;-82
2024/03/25 13:33:40;;;;;;;1.77;0.70;;;18.50;56.50;;;;;;6104153;23;20158;-83
2024/03/25 13:36:12;;;;;;;1.30;0.55;;;18.60;57.20;;;;;;6139905;23;20218;-82
2024/03/25 13:38:41;;;;;;;1.55;0.82;;;18.50;57.90;;;;;;6170849;23;20162;-83
2024/03/25 13:41:14;;;;;;;0.75;0.70;;;18.40;57.90;;;;;;6117400;23;20174;-81
2024/03/25 13:44:03;;;;;;;0.75;0.60;;;18.50;58.30;;;;;;6099861;23;20160;-81
2024/03/25 13:46:36;;;;;;;1.25;0.70;;;18.50;57.00;;;;;;6031194;23;20212;-81
2024/03/25 13:50:03;;;;;;;0.68;0.68;;;18.50;57.50;;;;;;6099038;23;20216;-81
2024/03/25 13:53:02;;;;;;;0.60;0.60;;;18.50;57.40;;;;;;5905827;24;20164;-83
2024/03/25 13:56:09;;;;;;;0.60;0.60;;;18.60;57.20;;;;;;5799537;24;20160;-82
2024/03/25 13:58:52;;;;;;;0.80;0.80;;;18.50;56.60;;;;;;5721582;25;20603;-82
2024/03/25 14:02:08;;;;;;;1.88;0.70;;;18.60;57.70;;;;;;5724742;25;20676;-82
2024/03/25 14:04:34;;;;;;;1.02;0.60;;;18.60;58.40;;;;;;5672905;25;20168;-82
2024/03/25 14:07:03;;;;;;;0.65;0.60;;;18.50;56.90;;;;;;5648416;25;20238;-81
2024/03/25 14:09:36;;;;;;;0.80;0.60;;;18.50;57.60;;;;;;5650101;25;20199;-81
2024/03/25 14:12:10;;;;;;;0.90;0.65;;;18.50;57.30;;;;;;5650337;25;20163;-82